Time;durP1;ratioP1;P1;durP2;ratioP2;P2;SDS_P1;SDS_P2;PMS_P1;PMS_P2;Temp;Humidity;BMP_temperature;BMP_pressure;BME280_temperature;BME280_humidity;BME280_pressure;Samples;Min_cycle;Max_cycle;Signal;HPM_P1;HPM_P2
2021/07/03 00:00:51;;;;;;;10.70;9.63;;;15.80;99.90;;;;;;5094471;28;20662;-68
2021/07/03 00:03:17;;;;;;;10.27;9.17;;;15.70;99.90;;;;;;5094448;28;20575;-68
2021/07/03 00:05:43;;;;;;;11.07;9.50;;;15.60;99.90;;;;;;5094361;28;20654;-68
2021/07/03 00:08:10;;;;;;;11.60;10.37;;;15.40;99.90;;;;;;5094343;28;20637;-68
2021/07/03 00:10:36;;;;;;;15.33;10.30;;;15.20;99.90;;;;;;5094210;28;20620;-68
2021/07/03 00:13:02;;;;;;;11.20;10.10;;;15.10;99.90;;;;;;5094569;28;20605;-68
2021/07/03 00:15:29;;;;;;;14.60;11.00;;;15.00;99.90;;;;;;5094210;28;20601;-68
2021/07/03 00:17:57;;;;;;;13.43;10.70;;;15.10;99.90;;;;;;5094086;28;20608;-68
2021/07/03 00:20:25;;;;;;;12.50;11.00;;;15.20;99.90;;;;;;5093736;28;20728;-68
2021/07/03 00:22:53;;;;;;;11.90;10.70;;;15.30;99.90;;;;;;5094160;28;20568;-68
2021/07/03 00:25:19;;;;;;;11.63;10.43;;;15.40;99.90;;;;;;5094064;28;20589;-68
2021/07/03 00:27:46;;;;;;;11.47;10.37;;;15.40;99.90;;;;;;5094186;28;20986;-68
2021/07/03 00:30:12;;;;;;;12.50;10.57;;;15.40;99.90;;;;;;5093725;28;20601;-68
2021/07/03 00:32:39;;;;;;;12.53;11.17;;;15.50;99.90;;;;;;5093079;28;20660;-68
2021/07/03 00:35:07;;;;;;;16.10;13.67;;;15.50;99.90;;;;;;5093651;28;20592;-68
2021/07/03 00:37:33;;;;;;;12.37;10.70;;;15.60;99.90;;;;;;5094018;28;20605;-68
2021/07/03 00:39:59;;;;;;;12.13;10.90;;;15.60;99.90;;;;;;5093734;28;20605;-68
2021/07/03 00:42:26;;;;;;;14.27;10.07;;;15.60;99.90;;;;;;5094100;28;20644;-68
2021/07/03 00:44:52;;;;;;;11.70;10.50;;;15.60;99.90;;;;;;5093711;28;20616;-68
2021/07/03 00:47:18;;;;;;;10.90;9.80;;;15.60;99.90;;;;;;5093570;28;20652;-68
2021/07/03 00:49:45;;;;;;;12.50;11.30;;;15.70;99.90;;;;;;5093620;28;20593;-68
2021/07/03 00:52:12;;;;;;;14.57;10.30;;;15.70;99.90;;;;;;5093698;28;20604;-68
2021/07/03 00:54:40;;;;;;;16.07;10.37;;;15.70;99.90;;;;;;5093231;28;20627;-68
2021/07/03 00:57:08;;;;;;;11.83;10.67;;;15.50;99.90;;;;;;5093741;28;20655;-68
2021/07/03 00:59:34;;;;;;;12.87;11.53;;;15.50;99.90;;;;;;5093259;28;20691;-68
2021/07/03 01:02:02;;;;;;;14.83;10.33;;;15.50;99.90;;;;;;5093479;28;20655;-68
2021/07/03 01:04:29;;;;;;;15.63;11.03;;;15.40;99.90;;;;;;5093459;28;21171;-68
2021/07/03 01:06:56;;;;;;;12.37;10.17;;;15.40;99.90;;;;;;5092820;28;21150;-68
2021/07/03 01:09:23;;;;;;;10.90;9.90;;;15.40;99.90;;;;;;5093124;28;20642;-68
2021/07/03 01:11:50;;;;;;;12.80;10.83;;;15.30;99.90;;;;;;5093349;28;21025;-68
2021/07/03 01:14:17;;;;;;;13.83;10.07;;;15.30;99.90;;;;;;5092380;28;20621;-68
2021/07/03 01:16:45;;;;;;;16.10;9.87;;;15.30;99.90;;;;;;5093254;28;20612;-68
2021/07/03 01:19:11;;;;;;;12.40;10.30;;;15.30;99.90;;;;;;5093324;28;21151;-68
2021/07/03 01:21:38;;;;;;;18.63;10.10;;;15.20;99.90;;;;;;5092950;28;20628;-68
2021/07/03 01:24:05;;;;;;;13.67;10.90;;;15.20;99.90;;;;;;5093194;28;20597;-68
2021/07/03 01:26:46;;;;;;;13.93;12.10;;;15.10;99.90;;;;;;5093332;28;20589;-68
2021/07/03 01:29:12;;;;;;;19.87;12.00;;;15.10;99.90;;;;;;5093090;28;21005;-68
2021/07/03 01:31:40;;;;;;;12.70;11.10;;;15.10;99.90;;;;;;5093081;28;20732;-68
2021/07/03 01:34:07;;;;;;;21.60;11.20;;;15.10;99.90;;;;;;5093324;28;20597;-68
2021/07/03 01:36:34;;;;;;;10.37;9.30;;;15.00;99.90;;;;;;5093265;28;20604;-68
2021/07/03 01:39:00;;;;;;;13.27;11.87;;;14.90;99.90;;;;;;5093119;28;20607;-68
2021/07/03 01:41:27;;;;;;;12.47;11.20;;;14.80;99.90;;;;;;5093047;28;20614;-68
2021/07/03 01:43:53;;;;;;;13.20;11.90;;;14.80;99.90;;;;;;5096483;28;20680;-68
2021/07/03 01:46:20;;;;;;;14.23;11.57;;;14.70;99.90;;;;;;5097229;28;20589;-68
2021/07/03 01:48:46;;;;;;;14.30;12.40;;;14.60;99.90;;;;;;5097091;28;20986;-68
2021/07/03 01:51:12;;;;;;;15.33;12.77;;;14.70;99.90;;;;;;5096601;28;20617;-68
2021/07/03 01:53:39;;;;;;;12.83;11.53;;;14.60;99.90;;;;;;5096868;28;20593;-68
2021/07/03 01:56:08;;;;;;;21.10;12.17;;;14.60;99.90;;;;;;5096920;28;20604;-68
2021/07/03 01:58:35;;;;;;;13.07;11.53;;;14.60;99.90;;;;;;5096092;28;20620;-67
2021/07/03 02:01:03;;;;;;;11.97;10.77;;;14.60;99.90;;;;;;5107794;28;20624;-67
2021/07/03 02:03:30;;;;;;;12.47;11.23;;;14.60;99.90;;;;;;5117374;28;20614;-67
2021/07/03 02:05:56;;;;;;;12.83;10.97;;;14.70;99.90;;;;;;5117197;28;20970;-67
2021/07/03 02:08:23;;;;;;;15.03;12.70;;;14.70;99.90;;;;;;5116660;28;20700;-67
2021/07/03 02:10:50;;;;;;;13.97;11.63;;;14.80;99.90;;;;;;5116360;28;20962;-67
2021/07/03 02:13:16;;;;;;;14.13;11.17;;;14.70;99.90;;;;;;5117205;28;20599;-67
2021/07/03 02:15:43;;;;;;;13.13;11.60;;;14.70;99.90;;;;;;5116404;28;20722;-68
2021/07/03 02:18:09;;;;;;;13.00;11.70;;;14.60;99.90;;;;;;5116272;28;21196;-68
2021/07/03 02:20:36;;;;;;;12.73;11.50;;;14.60;99.90;;;;;;5116292;28;20620;-68
2021/07/03 02:23:03;;;;;;;14.30;12.17;;;14.70;99.90;;;;;;5116840;28;20687;-68
2021/07/03 02:25:31;;;;;;;13.43;11.67;;;14.60;99.90;;;;;;5116747;28;20947;-68
2021/07/03 02:27:58;;;;;;;15.87;12.73;;;14.60;99.90;;;;;;5116595;28;20632;-68
2021/07/03 02:30:25;;;;;;;16.93;11.90;;;14.60;99.90;;;;;;5116213;28;20615;-68
2021/07/03 02:32:51;;;;;;;14.97;12.70;;;14.50;99.90;;;;;;5094901;28;20641;-67
2021/07/03 02:35:19;;;;;;;14.10;12.60;;;14.40;99.90;;;;;;5096174;28;20589;-68
2021/07/03 02:37:47;;;;;;;14.40;13.00;;;14.40;99.90;;;;;;5096292;28;20684;-68
2021/07/03 02:40:15;;;;;;;14.37;12.27;;;14.50;99.90;;;;;;5096133;28;21171;-68
2021/07/03 02:42:42;;;;;;;14.10;12.70;;;14.50;99.90;;;;;;5096117;28;20600;-68
2021/07/03 02:45:11;;;;;;;13.77;12.40;;;14.50;99.90;;;;;;5096009;28;20593;-68
2021/07/03 02:47:38;;;;;;;14.53;12.30;;;14.60;99.90;;;;;;5096013;28;20648;-68
2021/07/03 02:50:07;;;;;;;13.63;12.13;;;14.60;99.90;;;;;;5096195;28;20616;-67
2021/07/03 02:52:33;;;;;;;12.93;11.40;;;14.70;99.90;;;;;;5096163;28;20616;-67
2021/07/03 02:55:00;;;;;;;12.20;10.93;;;14.70;99.90;;;;;;5094858;28;20620;-67
2021/07/03 02:57:26;;;;;;;13.50;11.33;;;14.70;99.90;;;;;;5095849;28;20594;-67
2021/07/03 02:59:52;;;;;;;12.47;11.27;;;14.70;99.90;;;;;;5095810;28;20603;-67
2021/07/03 03:02:19;;;;;;;13.30;11.90;;;14.70;99.90;;;;;;5095192;28;20973;-69
2021/07/03 03:04:45;;;;;;;16.67;12.20;;;14.70;99.90;;;;;;5095010;28;20707;-67
2021/07/03 03:07:11;;;;;;;13.27;11.03;;;14.70;99.90;;;;;;5095427;28;20712;-67
2021/07/03 03:09:38;;;;;;;12.20;10.00;;;14.60;99.90;;;;;;5094955;28;20687;-67
2021/07/03 03:12:05;;;;;;;12.93;11.03;;;14.60;99.90;;;;;;5095157;28;20595;-67
2021/07/03 03:14:31;;;;;;;12.63;9.90;;;14.50;99.90;;;;;;5095157;28;20621;-67
2021/07/03 03:16:57;;;;;;;14.97;12.10;;;14.50;99.90;;;;;;5095263;28;20616;-67
2021/07/03 03:19:24;;;;;;;11.87;10.67;;;14.40;99.90;;;;;;5095480;28;20615;-67
2021/07/03 03:21:50;;;;;;;10.40;9.30;;;14.40;99.90;;;;;;5095422;28;20604;-67
2021/07/03 03:24:17;;;;;;;12.50;10.27;;;14.30;99.90;;;;;;5095284;28;20650;-67
2021/07/03 03:26:43;;;;;;;10.97;9.97;;;14.20;99.90;;;;;;5095395;28;20601;-68
2021/07/03 03:29:10;;;;;;;21.43;11.17;;;14.10;99.90;;;;;;5094916;28;20659;-67
2021/07/03 03:31:36;;;;;;;13.50;11.37;;;14.10;99.90;;;;;;5103940;28;20640;-67
2021/07/03 03:34:02;;;;;;;14.07;11.63;;;14.20;99.90;;;;;;5115157;28;20634;-70
2021/07/03 03:36:30;;;;;;;11.80;10.70;;;14.20;99.90;;;;;;5097614;28;20228;-67
2021/07/03 03:38:56;;;;;;;17.10;11.50;;;14.20;99.90;;;;;;5115408;28;20574;-69
2021/07/03 03:41:23;;;;;;;16.83;10.23;;;14.20;99.90;;;;;;5115331;28;20635;-67
2021/07/03 03:43:49;;;;;;;11.60;10.30;;;14.30;99.90;;;;;;5115241;28;20608;-67
2021/07/03 03:46:15;;;;;;;13.37;11.13;;;14.30;99.90;;;;;;5115056;28;20965;-67
2021/07/03 03:48:41;;;;;;;12.23;10.77;;;14.30;99.90;;;;;;5115197;28;20632;-67
2021/07/03 03:51:08;;;;;;;12.77;10.47;;;14.30;99.90;;;;;;5115252;28;20595;-69
2021/07/03 03:53:34;;;;;;;15.00;10.90;;;14.30;99.90;;;;;;5114671;28;20615;-68
2021/07/03 03:56:00;;;;;;;10.83;9.70;;;14.40;99.90;;;;;;5114999;28;20589;-67
2021/07/03 03:58:27;;;;;;;10.40;9.40;;;14.40;99.90;;;;;;5115167;28;20597;-68
2021/07/03 04:00:53;;;;;;;9.70;8.70;;;14.40;99.90;;;;;;5114962;28;20620;-67
2021/07/03 04:03:20;;;;;;;10.30;9.10;;;14.30;99.90;;;;;;5096635;28;20616;-67
2021/07/03 04:05:46;;;;;;;10.80;9.73;;;14.40;99.90;;;;;;5114172;28;20624;-67
2021/07/03 04:08:12;;;;;;;14.83;10.33;;;14.40;99.90;;;;;;5096806;28;20643;-68
2021/07/03 04:10:39;;;;;;;11.93;10.30;;;14.30;99.90;;;;;;5114064;28;20832;-68
2021/07/03 04:13:05;;;;;;;11.07;9.87;;;14.30;99.90;;;;;;5114856;28;20593;-68
2021/07/03 04:15:32;;;;;;;10.97;9.87;;;14.30;99.90;;;;;;5114657;28;20603;-68
2021/07/03 04:17:58;;;;;;;13.53;9.90;;;14.30;99.90;;;;;;5114532;28;21166;-68
2021/07/03 04:20:24;;;;;;;14.13;10.20;;;14.30;99.90;;;;;;5096612;28;20616;-68
2021/07/03 04:22:51;;;;;;;11.27;10.07;;;14.30;99.90;;;;;;5114583;28;20594;-68
2021/07/03 04:25:19;;;;;;;14.23;10.77;;;14.20;99.90;;;;;;5114661;28;20592;-68
2021/07/03 04:27:46;;;;;;;13.70;10.40;;;14.30;99.90;;;;;;5113366;28;20640;-68
2021/07/03 04:30:15;;;;;;;11.87;10.67;;;14.40;99.90;;;;;;5114426;28;20595;-68
2021/07/03 04:32:41;;;;;;;10.80;9.90;;;14.50;99.90;;;;;;5113507;28;20644;-68
2021/07/03 04:35:09;;;;;;;11.90;10.70;;;14.60;99.90;;;;;;5114432;28;21143;-68
2021/07/03 04:37:35;;;;;;;11.07;9.97;;;14.70;99.90;;;;;;5114631;28;20985;-68
2021/07/03 04:40:04;;;;;;;16.00;9.57;;;14.80;99.90;;;;;;5113785;28;20624;-68
2021/07/03 04:42:31;;;;;;;13.03;9.90;;;14.90;99.90;;;;;;5108674;28;20987;-68
2021/07/03 04:44:57;;;;;;;12.63;10.50;;;14.90;99.90;;;;;;5104347;28;20615;-68
2021/07/03 04:47:23;;;;;;;15.00;11.10;;;14.80;99.90;;;;;;5113643;28;20623;-68
2021/07/03 04:49:50;;;;;;;12.33;11.13;;;14.80;99.90;;;;;;5113083;28;20747;-68
2021/07/03 04:52:17;;;;;;;12.03;10.83;;;14.90;99.90;;;;;;5094996;28;20703;-68
2021/07/03 04:54:43;;;;;;;10.13;9.23;;;15.00;99.90;;;;;;5113723;28;20628;-68
2021/07/03 04:57:13;;;;;;;12.23;9.77;;;15.00;99.90;;;;;;5113256;28;20612;-68
2021/07/03 04:59:42;;;;;;;10.63;9.43;;;15.20;99.90;;;;;;5113481;28;20634;-68
2021/07/03 05:02:10;;;;;;;12.10;10.10;;;15.30;99.90;;;;;;5113123;28;20621;-68
2021/07/03 05:04:38;;;;;;;13.90;10.23;;;15.50;99.90;;;;;;5112927;28;21129;-68
2021/07/03 05:07:05;;;;;;;11.40;10.27;;;15.70;99.90;;;;;;5113288;28;20742;-68
2021/07/03 05:09:31;;;;;;;15.50;11.50;;;15.80;99.90;;;;;;5113507;28;21194;-68
2021/07/03 05:11:59;;;;;;;10.67;9.67;;;15.90;99.90;;;;;;5113758;28;21149;-68
2021/07/03 05:14:25;;;;;;;10.23;9.23;;;16.00;99.90;;;;;;5114162;28;20623;-68
2021/07/03 05:16:52;;;;;;;12.33;10.17;;;16.10;99.90;;;;;;5113248;28;20610;-68
2021/07/03 05:19:18;;;;;;;13.63;9.63;;;16.20;99.90;;;;;;5113765;28;20709;-68
2021/07/03 05:21:45;;;;;;;11.03;9.70;;;16.40;99.90;;;;;;5113740;28;20587;-68
2021/07/03 05:24:11;;;;;;;13.07;9.97;;;16.50;99.90;;;;;;5113599;28;20596;-68
2021/07/03 05:26:38;;;;;;;12.07;10.00;;;16.70;99.90;;;;;;5113670;28;20599;-68
2021/07/03 05:29:05;;;;;;;8.93;8.23;;;16.80;99.90;;;;;;5113479;28;20635;-68
2021/07/03 05:31:31;;;;;;;10.10;8.93;;;17.00;99.90;;;;;;5113438;28;21213;-68
2021/07/03 05:33:58;;;;;;;10.67;9.67;;;17.00;99.90;;;;;;5113692;28;20949;-68
2021/07/03 05:36:24;;;;;;;10.30;9.20;;;17.00;99.90;;;;;;5095189;28;20615;-68
2021/07/03 05:38:51;;;;;;;11.23;10.10;;;17.30;99.90;;;;;;5113675;28;21131;-68
2021/07/03 05:41:18;;;;;;;10.63;9.53;;;17.30;99.90;;;;;;5113149;28;21212;-68
2021/07/03 05:43:45;;;;;;;10.30;9.20;;;17.40;99.90;;;;;;5113344;28;20628;-68
2021/07/03 05:46:12;;;;;;;10.30;9.30;;;17.40;99.90;;;;;;5113586;28;20600;-68
2021/07/03 05:48:43;;;;;;;9.70;8.80;;;17.40;99.90;;;;;;5108263;28;21012;-67
2021/07/03 05:51:10;;;;;;;10.53;9.00;;;17.30;99.90;;;;;;5094681;28;21193;-67
2021/07/03 05:53:36;;;;;;;10.70;9.03;;;17.50;99.90;;;;;;5112955;28;20615;-67
2021/07/03 05:56:03;;;;;;;10.40;8.93;;;17.40;99.90;;;;;;5112891;28;20639;-66
2021/07/03 05:58:29;;;;;;;10.70;9.70;;;17.50;99.90;;;;;;5098422;28;20616;-66
2021/07/03 06:00:55;;;;;;;11.60;9.67;;;17.70;99.90;;;;;;5112872;28;20982;-66
2021/07/03 06:03:22;;;;;;;12.47;10.17;;;17.80;99.90;;;;;;5112919;28;20670;-66
2021/07/03 06:05:49;;;;;;;11.23;10.13;;;17.90;99.90;;;;;;5112101;28;20633;-67
2021/07/03 06:08:15;;;;;;;10.57;9.57;;;17.80;99.90;;;;;;5113118;28;20652;-66
2021/07/03 06:10:42;;;;;;;16.03;8.97;;;17.80;99.90;;;;;;5113457;28;20954;-66
2021/07/03 06:13:08;;;;;;;11.70;10.50;;;17.90;99.90;;;;;;5112847;28;20620;-66
2021/07/03 06:15:35;;;;;;;9.70;8.80;;;18.10;99.90;;;;;;5113324;28;20643;-66
2021/07/03 06:18:01;;;;;;;10.13;9.10;;;18.30;99.90;;;;;;5112844;28;20612;-66
2021/07/03 06:20:28;;;;;;;11.07;9.90;;;18.20;99.90;;;;;;5112915;28;20616;-66
2021/07/03 06:22:54;;;;;;;13.63;10.70;;;18.20;99.90;;;;;;5113106;28;20615;-66
2021/07/03 06:25:20;;;;;;;14.60;9.63;;;18.30;99.90;;;;;;5098987;28;20970;-66
2021/07/03 06:27:47;;;;;;;10.90;9.03;;;18.20;99.90;;;;;;5111766;28;20608;-66
2021/07/03 06:30:14;;;;;;;11.17;10.00;;;18.10;99.90;;;;;;5114896;28;20670;-66
2021/07/03 06:32:40;;;;;;;11.53;10.20;;;18.10;99.90;;;;;;5115721;28;20735;-66
2021/07/03 06:35:07;;;;;;;13.73;10.40;;;18.20;99.90;;;;;;5116235;28;20616;-66
2021/07/03 06:37:33;;;;;;;12.73;10.00;;;18.40;99.90;;;;;;5097847;28;20616;-66
2021/07/03 06:40:00;;;;;;;16.20;10.57;;;18.50;99.90;;;;;;5116388;28;20627;-66
2021/07/03 06:42:26;;;;;;;11.67;9.70;;;18.60;99.90;;;;;;5115828;28;20620;-66
2021/07/03 06:44:53;;;;;;;11.00;9.60;;;18.70;99.90;;;;;;5116183;28;21131;-67
2021/07/03 06:47:20;;;;;;;10.43;9.37;;;19.00;99.90;;;;;;5097372;28;20715;-66
2021/07/03 06:49:46;;;;;;;15.60;9.63;;;19.10;99.90;;;;;;5115750;28;20743;-66
2021/07/03 06:52:13;;;;;;;10.10;9.10;;;19.10;99.90;;;;;;5115699;28;20612;-66
2021/07/03 06:54:41;;;;;;;10.00;8.70;;;19.30;99.90;;;;;;5114865;28;20631;-67
2021/07/03 06:57:12;;;;;;;11.40;10.40;;;19.50;99.90;;;;;;5115867;28;20619;-66
2021/07/03 06:59:38;;;;;;;11.20;10.10;;;19.70;99.90;;;;;;5114777;28;20638;-66
2021/07/03 07:02:04;;;;;;;11.80;8.90;;;19.70;99.90;;;;;;5115428;28;20623;-66
2021/07/03 07:04:31;;;;;;;10.67;9.67;;;20.00;99.90;;;;;;5115297;28;20612;-66
2021/07/03 07:06:58;;;;;;;11.40;9.60;;;20.20;99.30;;;;;;5115237;28;20604;-66
2021/07/03 07:09:25;;;;;;;10.83;9.70;;;20.40;93.30;;;;;;5100974;28;20656;-66
2021/07/03 07:11:53;;;;;;;9.70;8.73;;;20.50;89.70;;;;;;5115509;28;20616;-66
2021/07/03 07:14:19;;;;;;;9.67;8.77;;;20.50;5.10;;;;;;5115523;28;21177;-67
2021/07/03 07:16:45;;;;;;;11.00;9.00;;;20.60;1.10;;;;;;5114900;28;20631;-67
2021/07/03 07:19:12;;;;;;;9.97;8.97;;;20.50;27.30;;;;;;5115508;28;20620;-67
2021/07/03 07:21:38;;;;;;;9.13;8.33;;;20.60;9.10;;;;;;5115128;28;21158;-67
2021/07/03 07:24:05;;;;;;;9.07;8.27;;;20.60;1.00;;;;;;5115246;28;20619;-67
2021/07/03 07:26:32;;;;;;;14.67;9.20;;;20.70;8.40;;;;;;5114982;28;20689;-67
2021/07/03 07:28:59;;;;;;;10.10;9.10;;;20.60;1.00;;;;;;5115218;28;20648;-68
2021/07/03 07:31:25;;;;;;;9.40;8.50;;;20.70;8.60;;;;;;5114892;28;20644;-67
2021/07/03 07:33:51;;;;;;;11.60;9.60;;;20.50;46.20;;;;;;5115051;28;20947;-67
2021/07/03 07:36:18;;;;;;;10.43;9.43;;;20.60;58.00;;;;;;5114833;28;20624;-67
2021/07/03 07:38:44;;;;;;;10.47;9.37;;;20.90;79.40;;;;;;5115091;28;21004;-68
2021/07/03 07:41:11;;;;;;;11.53;8.30;;;20.80;81.10;;;;;;5096704;28;20658;-68
2021/07/03 07:43:37;;;;;;;15.30;9.90;;;20.90;93.50;;;;;;5115804;28;20615;-68
2021/07/03 07:46:04;;;;;;;11.80;10.70;;;21.00;74.10;;;;;;5115267;28;20596;-68
2021/07/03 07:48:32;;;;;;;12.47;9.30;;;20.90;90.60;;;;;;5115575;28;20616;-68
2021/07/03 07:51:02;;;;;;;9.17;8.37;;;21.00;99.90;;;;;;5114458;28;20624;-68
2021/07/03 07:53:30;;;;;;;10.67;9.77;;;21.20;83.00;;;;;;5115254;28;20553;-68
2021/07/03 07:55:57;;;;;;;11.00;8.67;;;21.10;73.80;;;;;;5114955;28;20657;-68
2021/07/03 07:58:24;;;;;;;10.73;9.47;;;21.50;34.70;;;;;;5115091;28;20600;-68
2021/07/03 08:00:52;;;;;;;12.87;9.37;;;21.40;3.70;;;;;;5114641;28;20943;-68
2021/07/03 08:03:19;;;;;;;9.80;8.90;;;21.30;1.00;;;;;;5114643;28;20588;-68
2021/07/03 08:05:46;;;;;;;13.37;8.70;;;21.50;1.00;;;;;;5114401;28;20984;-68
2021/07/03 08:08:13;;;;;;;11.13;8.60;;;21.20;7.70;;;;;;5114709;28;20612;-67
2021/07/03 08:10:42;;;;;;;9.77;8.73;;;21.50;1.00;;;;;;5114616;28;20636;-68
2021/07/03 08:13:09;;;;;;;9.10;7.70;;;21.80;1.00;;;;;;5114641;28;21142;-68
2021/07/03 08:15:36;;;;;;;8.90;8.13;;;22.00;1.00;;;;;;5114713;28;20594;-68
2021/07/03 08:18:04;;;;;;;12.30;7.80;;;22.20;1.00;;;;;;5114702;28;20604;-68
2021/07/03 08:20:31;;;;;;;8.53;7.80;;;22.30;1.00;;;;;;5114533;28;20937;-68
2021/07/03 08:22:57;;;;;;;9.07;8.10;;;22.70;1.00;;;;;;5114507;28;20601;-67
2021/07/03 08:25:24;;;;;;;10.53;7.70;;;23.00;1.00;;;;;;5114523;28;20603;-67
2021/07/03 08:27:52;;;;;;;9.70;8.73;;;23.10;1.00;;;;;;5114268;28;20619;-68
2021/07/03 08:30:20;;;;;;;9.07;8.27;;;23.20;1.00;;;;;;5114758;28;20632;-68
2021/07/03 08:32:49;;;;;;;9.00;8.10;;;23.10;1.00;;;;;;5096453;28;20656;-68
2021/07/03 08:35:16;;;;;;;8.60;7.90;;;23.20;1.00;;;;;;5095968;28;20616;-68
2021/07/03 08:37:43;;;;;;;8.80;8.10;;;23.20;1.00;;;;;;5114334;28;20695;-68
2021/07/03 08:40:11;;;;;;;9.67;8.50;;;23.20;1.00;;;;;;5114483;28;20636;-68
2021/07/03 08:42:37;;;;;;;8.47;7.73;;;23.40;1.00;;;;;;5113851;28;20592;-68
2021/07/03 08:45:05;;;;;;;8.30;7.60;;;23.40;1.00;;;;;;5114154;28;20922;-68
2021/07/03 08:47:31;;;;;;;9.77;8.13;;;23.10;1.00;;;;;;5098894;28;20617;-68
2021/07/03 08:50:01;;;;;;;11.10;7.17;;;23.00;1.00;;;;;;5112121;27;21163;-68
2021/07/03 08:52:28;;;;;;;7.67;6.87;;;23.30;1.00;;;;;;5112630;28;21173;-68
2021/07/03 08:55:03;;;;;;;8.00;7.30;;;23.60;1.00;;;;;;5113896;28;20600;-68
2021/07/03 08:57:32;;;;;;;7.40;6.80;;;23.80;1.00;;;;;;5114011;28;21129;-68
2021/07/03 08:59:59;;;;;;;10.37;7.30;;;23.90;99.90;;;;;;5113831;28;21029;-68
2021/07/03 09:02:42;;;;;;;7.73;7.03;;;24.10;99.90;;;;;;5114284;28;20608;-68
2021/07/03 09:05:32;;;;;;;7.13;6.53;;;24.20;99.90;;;;;;5113997;28;20571;-68
2021/07/03 09:08:04;;;;;;;7.17;6.57;;;24.30;99.90;;;;;;5113858;28;20553;-68
2021/07/03 09:10:32;;;;;;;7.60;7.00;;;24.40;99.90;;;;;;5113845;28;20699;-68
2021/07/03 09:13:00;;;;;;;7.27;6.77;;;24.60;99.90;;;;;;5113917;28;20619;-68
2021/07/03 09:15:29;;;;;;;7.60;7.00;;;24.70;99.90;;;;;;5112975;28;20709;-68
2021/07/03 09:18:10;;;;;;;7.23;6.57;;;24.80;99.90;;;;;;5113844;28;20617;-68
2021/07/03 09:20:48;;;;;;;9.60;7.70;;;24.70;99.90;;;;;;5113144;28;20683;-68
2021/07/03 09:23:15;;;;;;;7.80;7.00;;;24.70;99.90;;;;;;5113215;28;20621;-68
2021/07/03 09:25:47;;;;;;;8.63;7.77;;;24.60;99.90;;;;;;5113804;28;20596;-68
2021/07/03 09:28:19;;;;;;;8.40;7.80;;;24.20;99.90;;;;;;5113577;28;20565;-68
2021/07/03 09:30:48;;;;;;;7.23;6.73;;;24.20;99.90;;;;;;5095352;28;20656;-68
2021/07/03 09:33:38;;;;;;;8.10;7.50;;;24.00;99.90;;;;;;5113528;28;20972;-67
2021/07/03 09:36:10;;;;;;;8.10;7.30;;;24.20;99.90;;;;;;5113410;28;20561;-67
2021/07/03 09:38:38;;;;;;;9.40;6.97;;;24.30;99.90;;;;;;5113309;28;20606;-67
2021/07/03 09:41:05;;;;;;;8.13;6.90;;;24.80;99.90;;;;;;5113526;28;20612;-67
2021/07/03 09:43:32;;;;;;;7.70;7.00;;;25.20;99.90;;;;;;5113457;28;20595;-67
2021/07/03 09:45:59;;;;;;;6.77;6.27;;;25.20;99.90;;;;;;5113336;28;20603;-67
2021/07/03 09:48:25;;;;;;;8.97;7.57;;;25.10;99.90;;;;;;5113652;28;20622;-67
2021/07/03 09:50:52;;;;;;;7.30;6.70;;;25.40;99.90;;;;;;5113247;28;20639;-67
2021/07/03 09:53:20;;;;;;;6.73;6.23;;;25.40;99.90;;;;;;5113015;28;20619;-67
2021/07/03 09:55:46;;;;;;;6.67;6.07;;;25.30;99.90;;;;;;5112575;28;20718;-67
2021/07/03 09:58:12;;;;;;;6.27;5.67;;;25.50;99.90;;;;;;5113261;28;20596;-66
2021/07/03 10:00:39;;;;;;;6.50;5.87;;;25.40;99.90;;;;;;5112995;28;20631;-67
2021/07/03 10:03:08;;;;;;;6.20;5.70;;;25.30;99.90;;;;;;5112942;28;20627;-67
2021/07/03 10:05:44;;;;;;;6.43;5.83;;;25.40;99.90;;;;;;5117186;28;20596;-67
2021/07/03 10:08:12;;;;;;;7.13;6.63;;;25.60;75.20;;;;;;5117157;28;20545;-67
2021/07/03 10:10:43;;;;;;;9.30;5.43;;;25.90;72.40;;;;;;5099135;28;21174;-67
2021/07/03 10:13:17;;;;;;;6.97;6.37;;;25.70;18.50;;;;;;5116317;28;20609;-67
2021/07/03 10:15:44;;;;;;;5.10;4.80;;;26.00;20.40;;;;;;5115763;28;20619;-67
2021/07/03 10:18:14;;;;;;;5.90;5.30;;;25.90;1.80;;;;;;5116861;28;21019;-67
2021/07/03 10:20:43;;;;;;;5.20;4.80;;;25.90;1.00;;;;;;5116384;28;20625;-68
2021/07/03 10:23:10;;;;;;;5.57;5.13;;;25.90;1.00;;;;;;5116535;28;20628;-68
2021/07/03 10:25:42;;;;;;;6.03;5.53;;;25.70;1.00;;;;;;5116657;28;20592;-68
2021/07/03 10:28:11;;;;;;;5.20;4.90;;;25.70;1.00;;;;;;5116712;28;20564;-68
2021/07/03 10:30:39;;;;;;;5.20;4.83;;;25.70;1.00;;;;;;5116243;28;20666;-68
2021/07/03 10:33:17;;;;;;;8.53;6.00;;;25.30;1.00;;;;;;5116445;28;20726;-67
2021/07/03 10:35:54;;;;;;;5.27;4.87;;;25.30;1.00;;;;;;5116528;28;20607;-67
2021/07/03 10:38:24;;;;;;;5.40;4.90;;;26.00;1.00;;;;;;5116843;28;20572;-67
2021/07/03 10:40:54;;;;;;;6.33;5.83;;;26.60;1.00;;;;;;5098044;28;20751;-67
2021/07/03 10:43:22;;;;;;;6.03;5.63;;;26.40;1.00;;;;;;5116248;28;20700;-67
2021/07/03 10:45:52;;;;;;;6.27;5.67;;;25.90;1.00;;;;;;5115349;28;20620;-67
2021/07/03 10:48:22;;;;;;;5.30;4.80;;;26.20;1.00;;;;;;5115228;28;20623;-67
2021/07/03 10:50:50;;;;;;;6.10;5.60;;;26.50;1.00;;;;;;5116530;28;20632;-68
2021/07/03 10:53:30;;;;;;;6.53;6.03;;;26.70;1.00;;;;;;5101468;28;20596;-67
2021/07/03 10:56:10;;;;;;;5.67;5.27;;;26.80;1.00;;;;;;5117086;28;20587;-67
2021/07/03 10:58:41;;;;;;;4.83;4.53;;;26.90;1.00;;;;;;5115586;28;20630;-67
2021/07/03 11:01:11;;;;;;;5.90;5.17;;;26.10;1.00;;;;;;5116393;28;20692;-68
2021/07/03 11:03:50;;;;;;;4.60;4.30;;;26.70;1.00;;;;;;5116179;28;20563;-68
2021/07/03 11:06:21;;;;;;;6.53;4.47;;;26.80;51.10;;;;;;5097759;28;20714;-68
2021/07/03 11:08:49;;;;;;;5.30;4.80;;;27.10;99.90;;;;;;5116037;28;20675;-69
2021/07/03 11:11:17;;;;;;;10.30;5.47;;;27.40;99.70;;;;;;5115244;28;20717;-70
2021/07/03 11:13:47;;;;;;;5.67;5.17;;;27.40;61.80;;;;;;5080623;28;20624;-69
2021/07/03 11:16:15;;;;;;;5.30;5.00;;;27.90;73.50;;;;;;5114562;28;20615;-69
2021/07/03 11:18:43;;;;;;;5.93;5.40;;;28.10;99.90;;;;;;5115569;28;20622;-69
2021/07/03 11:21:12;;;;;;;4.77;4.40;;;27.50;99.90;;;;;;5115260;28;20627;-68
2021/07/03 11:23:39;;;;;;;5.30;4.90;;;27.70;64.20;;;;;;5115571;28;20596;-68
2021/07/03 11:26:10;;;;;;;9.03;5.53;;;27.60;39.60;;;;;;5115505;28;20637;-68
2021/07/03 11:28:37;;;;;;;5.57;5.07;;;27.70;65.30;;;;;;5114759;28;20620;-68
2021/07/03 11:31:04;;;;;;;6.40;5.90;;;27.80;86.40;;;;;;5115436;28;20648;-68
2021/07/03 11:33:34;;;;;;;5.47;5.07;;;28.50;99.90;;;;;;5115485;28;20544;-69
2021/07/03 11:36:03;;;;;;;5.00;4.60;;;29.70;99.90;;;;;;5115388;28;20568;-69
2021/07/03 11:38:30;;;;;;;5.20;4.67;;;29.00;99.90;;;;;;5115568;28;20631;-68
2021/07/03 11:40:59;;;;;;;5.73;5.23;;;28.80;99.90;;;;;;5114607;28;20742;-69
2021/07/03 11:43:29;;;;;;;4.83;4.60;;;28.90;1.00;;;;;;5115185;28;20600;-69
2021/07/03 11:45:56;;;;;;;5.37;5.07;;;28.50;1.00;;;;;;5114275;28;20675;-68
2021/07/03 11:48:24;;;;;;;4.80;4.60;;;28.60;1.00;;;;;;5115194;28;20603;-68
2021/07/03 11:50:53;;;;;;;5.43;5.03;;;28.60;1.00;;;;;;5115014;28;20640;-68
2021/07/03 11:53:22;;;;;;;4.27;4.00;;;29.40;1.00;;;;;;5115122;28;20614;-69
2021/07/03 11:55:56;;;;;;;4.73;4.30;;;29.90;99.90;;;;;;5096921;28;20588;-69
2021/07/03 11:58:25;;;;;;;4.73;4.43;;;31.10;99.90;;;;;;5114952;28;20695;-69
2021/07/03 12:01:03;;;;;;;4.40;4.17;;;31.30;99.90;;;;;;5115086;28;20604;-69
2021/07/03 12:03:37;;;;;;;4.80;4.50;;;32.20;99.90;;;;;;5115011;28;20564;-69
2021/07/03 12:06:06;;;;;;;5.07;4.77;;;32.20;99.90;;;;;;5114808;28;20665;-69
2021/07/03 12:08:38;;;;;;;5.13;4.80;;;31.20;99.90;;;;;;5114309;28;20964;-69
2021/07/03 12:11:07;;;;;;;4.80;4.40;;;31.00;99.90;;;;;;5114096;28;20628;-69
2021/07/03 12:13:52;;;;;;;5.53;5.03;;;32.40;99.90;;;;;;5114652;28;20596;-69
2021/07/03 12:16:21;;;;;;;5.37;4.90;;;32.40;99.90;;;;;;5114801;28;20549;-69
2021/07/03 12:18:50;;;;;;;4.63;4.33;;;31.90;99.90;;;;;;5114654;28;20606;-69
2021/07/03 12:21:23;;;;;;;5.73;5.27;;;31.90;99.90;;;;;;5114508;28;20632;-69
2021/07/03 12:24:04;;;;;;;5.07;4.70;;;31.00;99.90;;;;;;5113686;28;20627;-69
2021/07/03 12:26:41;;;;;;;4.80;4.40;;;31.90;99.90;;;;;;5096402;28;20616;-69
2021/07/03 12:29:12;;;;;;;5.00;4.47;;;32.60;99.90;;;;;;5114029;28;20973;-68
2021/07/03 12:31:46;;;;;;;5.63;5.13;;;33.40;99.90;;;;;;5114271;28;20665;-69
2021/07/03 12:34:22;;;;;;;5.30;4.67;;;33.30;99.90;;;;;;5114034;28;20613;-69
2021/07/03 12:36:53;;;;;;;4.60;4.37;;;32.10;99.90;;;;;;5114430;28;20588;-69
2021/07/03 12:39:22;;;;;;;5.00;4.70;;;32.80;99.90;;;;;;5114639;28;20952;-69
2021/07/03 12:42:10;;;;;;;4.70;4.27;;;31.90;99.90;;;;;;5113480;28;20644;-69